sensor_id;sensor_type;location;lat;lon;timestamp;P1;durP1;ratioP1;P2;durP2;ratioP2
65757;SDS011;52495;52.208;5.158;2023-12-28T00:00:04;6.88;;;2.95;;
65757;SDS011;52495;52.208;5.158;2023-12-28T00:02:32;5.45;;;3.28;;
65757;SDS011;52495;52.208;5.158;2023-12-28T00:04:59;5.95;;;3.00;;
65757;SDS011;52495;52.208;5.158;2023-12-28T00:07:25;6.55;;;3.08;;
65757;SDS011;52495;52.208;5.158;2023-12-28T00:09:52;7.22;;;3.55;;
65757;SDS011;52495;52.208;5.158;2023-12-28T00:12:20;5.93;;;3.10;;
65757;SDS011;52495;52.208;5.158;2023-12-28T00:14:48;4.70;;;2.88;;
65757;SDS011;52495;52.208;5.158;2023-12-28T00:17:14;5.88;;;3.10;;
65757;SDS011;52495;52.208;5.158;2023-12-28T00:19:41;5.10;;;2.90;;
65757;SDS011;52495;52.208;5.158;2023-12-28T00:22:08;5.50;;;2.92;;
65757;SDS011;52495;52.208;5.158;2023-12-28T00:24:34;6.65;;;3.30;;
65757;SDS011;52495;52.208;5.158;2023-12-28T00:27:01;6.22;;;3.10;;
65757;SDS011;52495;52.208;5.158;2023-12-28T00:29:29;7.95;;;3.17;;
65757;SDS011;52495;52.208;5.158;2023-12-28T00:31:57;5.18;;;3.22;;
65757;SDS011;52495;52.208;5.158;2023-12-28T00:34:24;7.30;;;3.20;;
65757;SDS011;52495;52.208;5.158;2023-12-28T00:36:51;6.40;;;3.17;;
65757;SDS011;52495;52.208;5.158;2023-12-28T00:39:18;8.75;;;3.10;;
65757;SDS011;52495;52.208;5.158;2023-12-28T00:41:45;8.98;;;3.70;;
65757;SDS011;52495;52.208;5.158;2023-12-28T00:44:11;9.15;;;3.08;;
65757;SDS011;52495;52.208;5.158;2023-12-28T00:46:39;6.93;;;2.80;;
65757;SDS011;52495;52.208;5.158;2023-12-28T00:49:06;7.18;;;3.28;;
65757;SDS011;52495;52.208;5.158;2023-12-28T00:51:33;7.22;;;3.22;;
65757;SDS011;52495;52.208;5.158;2023-12-28T00:54:00;6.57;;;3.10;;
65757;SDS011;52495;52.208;5.158;2023-12-28T00:56:27;7.15;;;2.90;;
65757;SDS011;52495;52.208;5.158;2023-12-28T00:58:53;6.53;;;3.13;;
65757;SDS011;52495;52.208;5.158;2023-12-28T01:01:20;7.97;;;2.63;;
65757;SDS011;52495;52.208;5.158;2023-12-28T01:03:48;5.32;;;2.50;;
65757;SDS011;52495;52.208;5.158;2023-12-28T01:06:15;8.40;;;3.13;;
65757;SDS011;52495;52.208;5.158;2023-12-28T01:08:41;7.68;;;3.13;;
65757;SDS011;52495;52.208;5.158;2023-12-28T01:11:10;6.45;;;3.22;;
65757;SDS011;52495;52.208;5.158;2023-12-28T01:13:39;10.35;;;2.88;;
65757;SDS011;52495;52.208;5.158;2023-12-28T01:16:06;9.63;;;3.17;;
65757;SDS011;52495;52.208;5.158;2023-12-28T01:18:33;7.03;;;3.38;;
65757;SDS011;52495;52.208;5.158;2023-12-28T01:21:01;7.88;;;2.92;;
65757;SDS011;52495;52.208;5.158;2023-12-28T01:23:27;10.63;;;2.95;;
65757;SDS011;52495;52.208;5.158;2023-12-28T01:25:54;8.93;;;3.20;;
65757;SDS011;52495;52.208;5.158;2023-12-28T01:28:22;6.47;;;2.85;;
65757;SDS011;52495;52.208;5.158;2023-12-28T01:30:49;6.38;;;2.80;;
65757;SDS011;52495;52.208;5.158;2023-12-28T01:33:15;4.70;;;2.90;;
65757;SDS011;52495;52.208;5.158;2023-12-28T01:35:42;5.03;;;2.70;;
65757;SDS011;52495;52.208;5.158;2023-12-28T01:38:10;5.72;;;2.40;;
65757;SDS011;52495;52.208;5.158;2023-12-28T01:40:37;5.70;;;2.60;;
65757;SDS011;52495;52.208;5.158;2023-12-28T01:43:04;5.78;;;2.65;;
65757;SDS011;52495;52.208;5.158;2023-12-28T01:45:31;7.82;;;2.63;;
65757;SDS011;52495;52.208;5.158;2023-12-28T01:47:58;5.82;;;2.40;;
65757;SDS011;52495;52.208;5.158;2023-12-28T01:50:27;7.75;;;2.03;;
65757;SDS011;52495;52.208;5.158;2023-12-28T01:52:54;6.90;;;2.72;;
65757;SDS011;52495;52.208;5.158;2023-12-28T01:55:23;9.15;;;2.85;;
65757;SDS011;52495;52.208;5.158;2023-12-28T01:57:51;7.43;;;3.10;;
65757;SDS011;52495;52.208;5.158;2023-12-28T02:00:18;6.80;;;2.90;;
65757;SDS011;52495;52.208;5.158;2023-12-28T02:02:48;8.10;;;2.95;;
65757;SDS011;52495;52.208;5.158;2023-12-28T02:05:16;9.20;;;3.03;;
65757;SDS011;52495;52.208;5.158;2023-12-28T02:07:44;5.75;;;2.70;;
65757;SDS011;52495;52.208;5.158;2023-12-28T02:10:11;5.43;;;2.50;;
65757;SDS011;52495;52.208;5.158;2023-12-28T02:12:39;6.55;;;2.83;;
65757;SDS011;52495;52.208;5.158;2023-12-28T02:15:06;8.95;;;2.95;;
65757;SDS011;52495;52.208;5.158;2023-12-28T02:17:36;6.35;;;3.08;;
65757;SDS011;52495;52.208;5.158;2023-12-28T02:20:09;9.43;;;2.75;;
65757;SDS011;52495;52.208;5.158;2023-12-28T02:22:37;4.50;;;2.30;;
65757;SDS011;52495;52.208;5.158;2023-12-28T02:25:07;7.22;;;2.90;;
65757;SDS011;52495;52.208;5.158;2023-12-28T02:27:35;10.35;;;2.97;;
65757;SDS011;52495;52.208;5.158;2023-12-28T02:30:05;8.52;;;2.63;;
65757;SDS011;52495;52.208;5.158;2023-12-28T02:32:35;10.02;;;2.88;;
65757;SDS011;52495;52.208;5.158;2023-12-28T02:35:12;7.47;;;2.72;;
65757;SDS011;52495;52.208;5.158;2023-12-28T02:37:44;6.57;;;2.88;;
65757;SDS011;52495;52.208;5.158;2023-12-28T02:40:18;4.78;;;2.72;;
65757;SDS011;52495;52.208;5.158;2023-12-28T02:42:46;7.10;;;2.60;;
65757;SDS011;52495;52.208;5.158;2023-12-28T02:45:13;5.22;;;2.70;;
65757;SDS011;52495;52.208;5.158;2023-12-28T02:47:39;5.80;;;2.42;;
65757;SDS011;52495;52.208;5.158;2023-12-28T02:50:07;6.47;;;2.30;;
65757;SDS011;52495;52.208;5.158;2023-12-28T02:52:34;8.68;;;2.97;;
65757;SDS011;52495;52.208;5.158;2023-12-28T02:55:01;6.38;;;2.85;;
65757;SDS011;52495;52.208;5.158;2023-12-28T02:57:29;8.00;;;2.63;;
65757;SDS011;52495;52.208;5.158;2023-12-28T02:59:56;8.98;;;2.63;;
65757;SDS011;52495;52.208;5.158;2023-12-28T03:02:26;7.25;;;2.63;;
65757;SDS011;52495;52.208;5.158;2023-12-28T03:04:53;5.78;;;2.22;;
65757;SDS011;52495;52.208;5.158;2023-12-28T03:07:20;5.53;;;2.45;;
65757;SDS011;52495;52.208;5.158;2023-12-28T03:09:47;7.82;;;2.80;;
65757;SDS011;52495;52.208;5.158;2023-12-28T03:12:15;6.07;;;2.65;;
65757;SDS011;52495;52.208;5.158;2023-12-28T03:14:44;11.90;;;2.83;;
65757;SDS011;52495;52.208;5.158;2023-12-28T03:17:10;8.60;;;2.65;;
65757;SDS011;52495;52.208;5.158;2023-12-28T03:19:38;6.63;;;2.20;;
65757;SDS011;52495;52.208;5.158;2023-12-28T03:22:04;9.15;;;2.47;;
65757;SDS011;52495;52.208;5.158;2023-12-28T03:24:31;8.00;;;2.30;;
65757;SDS011;52495;52.208;5.158;2023-12-28T03:26:58;6.38;;;2.38;;
65757;SDS011;52495;52.208;5.158;2023-12-28T03:29:25;7.07;;;2.42;;
65757;SDS011;52495;52.208;5.158;2023-12-28T03:31:54;6.50;;;2.50;;
65757;SDS011;52495;52.208;5.158;2023-12-28T03:34:21;5.07;;;2.47;;
65757;SDS011;52495;52.208;5.158;2023-12-28T03:36:48;7.78;;;2.33;;
65757;SDS011;52495;52.208;5.158;2023-12-28T03:39:16;4.80;;;2.63;;
65757;SDS011;52495;52.208;5.158;2023-12-28T03:41:43;10.07;;;2.65;;
65757;SDS011;52495;52.208;5.158;2023-12-28T03:44:10;6.15;;;2.22;;
65757;SDS011;52495;52.208;5.158;2023-12-28T03:46:37;8.13;;;2.40;;
65757;SDS011;52495;52.208;5.158;2023-12-28T03:49:05;7.40;;;2.65;;
65757;SDS011;52495;52.208;5.158;2023-12-28T03:51:32;8.18;;;2.20;;
65757;SDS011;52495;52.208;5.158;2023-12-28T03:53:58;8.32;;;2.47;;
65757;SDS011;52495;52.208;5.158;2023-12-28T03:56:26;7.90;;;2.42;;
65757;SDS011;52495;52.208;5.158;2023-12-28T03:58:55;6.55;;;2.33;;
65757;SDS011;52495;52.208;5.158;2023-12-28T04:01:22;9.02;;;2.50;;
65757;SDS011;52495;52.208;5.158;2023-12-28T04:03:49;7.68;;;2.40;;
65757;SDS011;52495;52.208;5.158;2023-12-28T04:06:17;5.60;;;2.22;;
65757;SDS011;52495;52.208;5.158;2023-12-28T04:08:44;6.97;;;2.90;;
65757;SDS011;52495;52.208;5.158;2023-12-28T04:11:11;8.77;;;2.30;;
65757;SDS011;52495;52.208;5.158;2023-12-28T04:13:37;10.40;;;2.45;;
65757;SDS011;52495;52.208;5.158;2023-12-28T04:16:05;9.68;;;2.72;;
65757;SDS011;52495;52.208;5.158;2023-12-28T04:18:34;7.43;;;2.40;;
65757;SDS011;52495;52.208;5.158;2023-12-28T04:21:01;7.35;;;2.35;;
65757;SDS011;52495;52.208;5.158;2023-12-28T04:23:29;5.60;;;2.40;;
65757;SDS011;52495;52.208;5.158;2023-12-28T04:25:57;7.53;;;2.30;;
65757;SDS011;52495;52.208;5.158;2023-12-28T04:28:24;10.27;;;2.92;;
65757;SDS011;52495;52.208;5.158;2023-12-28T04:30:51;8.48;;;2.60;;
65757;SDS011;52495;52.208;5.158;2023-12-28T04:33:18;12.23;;;2.90;;
65757;SDS011;52495;52.208;5.158;2023-12-28T04:35:46;8.48;;;2.65;;
65757;SDS011;52495;52.208;5.158;2023-12-28T04:38:12;9.30;;;2.55;;
65757;SDS011;52495;52.208;5.158;2023-12-28T04:40:41;7.35;;;2.33;;
65757;SDS011;52495;52.208;5.158;2023-12-28T04:43:08;12.98;;;3.15;;
65757;SDS011;52495;52.208;5.158;2023-12-28T04:45:35;8.48;;;1.92;;
65757;SDS011;52495;52.208;5.158;2023-12-28T04:48:02;8.75;;;2.38;;
65757;SDS011;52495;52.208;5.158;2023-12-28T04:50:29;8.23;;;2.58;;
65757;SDS011;52495;52.208;5.158;2023-12-28T04:52:56;10.50;;;2.63;;
65757;SDS011;52495;52.208;5.158;2023-12-28T04:55:22;9.23;;;2.22;;
65757;SDS011;52495;52.208;5.158;2023-12-28T04:57:50;10.38;;;2.30;;
65757;SDS011;52495;52.208;5.158;2023-12-28T05:00:17;12.90;;;3.30;;
65757;SDS011;52495;52.208;5.158;2023-12-28T05:02:46;10.70;;;2.58;;
65757;SDS011;52495;52.208;5.158;2023-12-28T05:05:13;13.38;;;3.10;;
65757;SDS011;52495;52.208;5.158;2023-12-28T05:07:40;14.85;;;2.67;;
65757;SDS011;52495;52.208;5.158;2023-12-28T05:10:07;9.73;;;3.10;;
65757;SDS011;52495;52.208;5.158;2023-12-28T05:12:34;11.50;;;2.80;;
65757;SDS011;52495;52.208;5.158;2023-12-28T05:15:03;10.40;;;2.80;;
65757;SDS011;52495;52.208;5.158;2023-12-28T05:17:30;8.85;;;2.42;;
65757;SDS011;52495;52.208;5.158;2023-12-28T05:19:57;11.00;;;2.53;;
65757;SDS011;52495;52.208;5.158;2023-12-28T05:22:24;12.25;;;2.72;;
65757;SDS011;52495;52.208;5.158;2023-12-28T05:24:50;8.68;;;2.40;;
65757;SDS011;52495;52.208;5.158;2023-12-28T05:27:17;8.70;;;2.70;;
65757;SDS011;52495;52.208;5.158;2023-12-28T05:29:44;9.85;;;2.60;;
65757;SDS011;52495;52.208;5.158;2023-12-28T05:32:12;15.48;;;3.20;;
65757;SDS011;52495;52.208;5.158;2023-12-28T05:34:39;15.20;;;2.63;;
65757;SDS011;52495;52.208;5.158;2023-12-28T05:37:05;9.73;;;2.42;;
65757;SDS011;52495;52.208;5.158;2023-12-28T05:39:32;9.23;;;2.25;;
65757;SDS011;52495;52.208;5.158;2023-12-28T05:41:59;14.70;;;2.92;;
65757;SDS011;52495;52.208;5.158;2023-12-28T05:44:26;11.05;;;2.97;;
65757;SDS011;52495;52.208;5.158;2023-12-28T05:46:52;10.02;;;2.58;;
65757;SDS011;52495;52.208;5.158;2023-12-28T05:49:20;11.48;;;2.35;;
65757;SDS011;52495;52.208;5.158;2023-12-28T05:51:47;12.10;;;2.60;;
65757;SDS011;52495;52.208;5.158;2023-12-28T05:54:14;14.30;;;3.10;;
65757;SDS011;52495;52.208;5.158;2023-12-28T05:56:41;13.18;;;2.70;;
65757;SDS011;52495;52.208;5.158;2023-12-28T05:59:07;13.30;;;2.50;;
65757;SDS011;52495;52.208;5.158;2023-12-28T06:01:41;10.80;;;3.03;;
65757;SDS011;52495;52.208;5.158;2023-12-28T06:04:08;17.67;;;3.15;;
65757;SDS011;52495;52.208;5.158;2023-12-28T06:06:36;13.73;;;2.80;;
65757;SDS011;52495;52.208;5.158;2023-12-28T06:09:03;13.38;;;3.58;;
65757;SDS011;52495;52.208;5.158;2023-12-28T06:11:29;12.88;;;2.47;;
65757;SDS011;52495;52.208;5.158;2023-12-28T06:13:56;14.48;;;2.92;;
65757;SDS011;52495;52.208;5.158;2023-12-28T06:16:23;13.35;;;2.65;;
65757;SDS011;52495;52.208;5.158;2023-12-28T06:18:50;7.85;;;2.17;;
65757;SDS011;52495;52.208;5.158;2023-12-28T06:21:17;15.18;;;3.30;;
65757;SDS011;52495;52.208;5.158;2023-12-28T06:23:45;13.18;;;3.28;;
65757;SDS011;52495;52.208;5.158;2023-12-28T06:26:12;10.63;;;3.05;;
65757;SDS011;52495;52.208;5.158;2023-12-28T06:28:38;16.10;;;3.03;;
65757;SDS011;52495;52.208;5.158;2023-12-28T06:31:05;14.98;;;2.70;;
65757;SDS011;52495;52.208;5.158;2023-12-28T06:33:32;16.05;;;3.03;;
65757;SDS011;52495;52.208;5.158;2023-12-28T06:36:04;13.38;;;2.70;;
65757;SDS011;52495;52.208;5.158;2023-12-28T06:38:31;17.30;;;3.03;;
65757;SDS011;52495;52.208;5.158;2023-12-28T06:40:59;10.25;;;3.35;;
65757;SDS011;52495;52.208;5.158;2023-12-28T06:43:26;11.52;;;2.60;;
65757;SDS011;52495;52.208;5.158;2023-12-28T06:45:53;16.20;;;3.17;;
65757;SDS011;52495;52.208;5.158;2023-12-28T06:48:19;14.38;;;3.20;;
65757;SDS011;52495;52.208;5.158;2023-12-28T06:50:46;19.52;;;3.10;;
65757;SDS011;52495;52.208;5.158;2023-12-28T06:53:13;19.00;;;3.15;;
65757;SDS011;52495;52.208;5.158;2023-12-28T06:55:40;22.17;;;3.75;;
65757;SDS011;52495;52.208;5.158;2023-12-28T06:58:08;15.55;;;2.95;;
65757;SDS011;52495;52.208;5.158;2023-12-28T07:00:35;14.90;;;3.28;;
65757;SDS011;52495;52.208;5.158;2023-12-28T07:03:01;14.43;;;3.63;;
65757;SDS011;52495;52.208;5.158;2023-12-28T07:05:28;11.63;;;2.83;;
65757;SDS011;52495;52.208;5.158;2023-12-28T07:07:55;12.63;;;3.03;;
65757;SDS011;52495;52.208;5.158;2023-12-28T07:10:22;13.52;;;2.90;;
65757;SDS011;52495;52.208;5.158;2023-12-28T07:12:49;21.27;;;3.22;;
65757;SDS011;52495;52.208;5.158;2023-12-28T07:15:18;15.07;;;3.03;;
65757;SDS011;52495;52.208;5.158;2023-12-28T07:17:44;12.88;;;3.85;;
65757;SDS011;52495;52.208;5.158;2023-12-28T07:20:11;17.50;;;3.72;;
65757;SDS011;52495;52.208;5.158;2023-12-28T07:22:38;20.83;;;4.47;;
65757;SDS011;52495;52.208;5.158;2023-12-28T07:25:05;16.10;;;3.42;;
65757;SDS011;52495;52.208;5.158;2023-12-28T07:27:32;19.10;;;4.03;;
65757;SDS011;52495;52.208;5.158;2023-12-28T07:29:59;13.68;;;3.10;;
65757;SDS011;52495;52.208;5.158;2023-12-28T07:32:28;17.27;;;2.72;;
65757;SDS011;52495;52.208;5.158;2023-12-28T07:34:55;12.70;;;3.08;;
65757;SDS011;52495;52.208;5.158;2023-12-28T07:37:23;18.88;;;3.33;;
65757;SDS011;52495;52.208;5.158;2023-12-28T07:39:50;10.40;;;2.60;;
65757;SDS011;52495;52.208;5.158;2023-12-28T07:42:17;15.07;;;3.28;;
65757;SDS011;52495;52.208;5.158;2023-12-28T07:44:44;18.40;;;3.00;;
65757;SDS011;52495;52.208;5.158;2023-12-28T07:47:11;12.30;;;3.08;;
65757;SDS011;52495;52.208;5.158;2023-12-28T07:49:39;13.38;;;3.17;;
65757;SDS011;52495;52.208;5.158;2023-12-28T07:52:06;18.73;;;2.97;;
65757;SDS011;52495;52.208;5.158;2023-12-28T07:54:33;14.80;;;3.53;;
65757;SDS011;52495;52.208;5.158;2023-12-28T07:57:00;16.10;;;2.95;;
65757;SDS011;52495;52.208;5.158;2023-12-28T07:59:26;16.02;;;3.15;;
65757;SDS011;52495;52.208;5.158;2023-12-28T08:01:53;15.25;;;3.03;;
65757;SDS011;52495;52.208;5.158;2023-12-28T08:04:20;16.88;;;2.97;;
65757;SDS011;52495;52.208;5.158;2023-12-28T08:06:48;18.00;;;3.03;;
65757;SDS011;52495;52.208;5.158;2023-12-28T08:09:15;11.07;;;2.70;;
65757;SDS011;52495;52.208;5.158;2023-12-28T08:11:42;12.70;;;2.53;;
65757;SDS011;52495;52.208;5.158;2023-12-28T08:14:08;16.00;;;3.17;;
65757;SDS011;52495;52.208;5.158;2023-12-28T08:16:35;14.85;;;2.90;;
65757;SDS011;52495;52.208;5.158;2023-12-28T08:19:02;16.55;;;3.70;;
65757;SDS011;52495;52.208;5.158;2023-12-28T08:21:29;14.35;;;2.92;;
65757;SDS011;52495;52.208;5.158;2023-12-28T08:23:57;17.90;;;3.15;;
65757;SDS011;52495;52.208;5.158;2023-12-28T08:26:24;20.70;;;3.85;;
65757;SDS011;52495;52.208;5.158;2023-12-28T08:28:51;16.67;;;2.90;;
65757;SDS011;52495;52.208;5.158;2023-12-28T08:31:18;17.33;;;3.05;;
65757;SDS011;52495;52.208;5.158;2023-12-28T08:33:44;19.05;;;3.45;;
65757;SDS011;52495;52.208;5.158;2023-12-28T08:36:11;16.48;;;2.80;;
65757;SDS011;52495;52.208;5.158;2023-12-28T08:38:38;15.93;;;3.00;;
65757;SDS011;52495;52.208;5.158;2023-12-28T08:41:07;13.40;;;2.88;;
65757;SDS011;52495;52.208;5.158;2023-12-28T08:43:34;14.43;;;3.70;;
65757;SDS011;52495;52.208;5.158;2023-12-28T08:46:01;15.02;;;3.15;;
65757;SDS011;52495;52.208;5.158;2023-12-28T08:48:28;12.15;;;3.00;;
65757;SDS011;52495;52.208;5.158;2023-12-28T08:50:55;15.00;;;3.53;;
65757;SDS011;52495;52.208;5.158;2023-12-28T08:53:22;10.90;;;2.53;;
65757;SDS011;52495;52.208;5.158;2023-12-28T08:55:48;15.40;;;3.05;;
65757;SDS011;52495;52.208;5.158;2023-12-28T08:58:17;20.27;;;3.40;;
65757;SDS011;52495;52.208;5.158;2023-12-28T09:00:44;10.50;;;2.30;;
65757;SDS011;52495;52.208;5.158;2023-12-28T09:03:13;19.17;;;3.15;;
65757;SDS011;52495;52.208;5.158;2023-12-28T09:05:39;17.08;;;2.85;;
65757;SDS011;52495;52.208;5.158;2023-12-28T09:08:06;15.60;;;3.17;;
65757;SDS011;52495;52.208;5.158;2023-12-28T09:10:33;16.13;;;2.92;;
65757;SDS011;52495;52.208;5.158;2023-12-28T09:12:59;19.05;;;3.17;;
65757;SDS011;52495;52.208;5.158;2023-12-28T09:15:28;16.33;;;2.80;;
65757;SDS011;52495;52.208;5.158;2023-12-28T09:17:55;12.18;;;2.90;;
65757;SDS011;52495;52.208;5.158;2023-12-28T09:20:22;18.83;;;3.47;;
65757;SDS011;52495;52.208;5.158;2023-12-28T09:22:49;14.02;;;3.35;;
65757;SDS011;52495;52.208;5.158;2023-12-28T09:25:21;17.67;;;3.28;;
65757;SDS011;52495;52.208;5.158;2023-12-28T09:27:48;17.45;;;4.13;;
65757;SDS011;52495;52.208;5.158;2023-12-28T09:30:15;16.33;;;3.10;;
65757;SDS011;52495;52.208;5.158;2023-12-28T09:32:43;17.67;;;3.13;;
65757;SDS011;52495;52.208;5.158;2023-12-28T09:35:10;21.15;;;3.50;;
65757;SDS011;52495;52.208;5.158;2023-12-28T09:37:37;17.73;;;3.75;;
65757;SDS011;52495;52.208;5.158;2023-12-28T09:40:04;12.93;;;3.80;;
65757;SDS011;52495;52.208;5.158;2023-12-28T09:42:35;27.40;;;9.90;;
65757;SDS011;52495;52.208;5.158;2023-12-28T09:45:10;15.35;;;5.15;;
65757;SDS011;52495;52.208;5.158;2023-12-28T09:47:37;19.27;;;4.45;;
65757;SDS011;52495;52.208;5.158;2023-12-28T09:50:07;18.20;;;3.70;;
65757;SDS011;52495;52.208;5.158;2023-12-28T09:52:34;22.77;;;4.25;;
65757;SDS011;52495;52.208;5.158;2023-12-28T09:55:01;12.00;;;2.83;;
65757;SDS011;52495;52.208;5.158;2023-12-28T09:57:29;17.15;;;4.28;;
65757;SDS011;52495;52.208;5.158;2023-12-28T09:59:57;12.90;;;3.15;;
65757;SDS011;52495;52.208;5.158;2023-12-28T10:02:24;18.67;;;3.13;;
65757;SDS011;52495;52.208;5.158;2023-12-28T10:04:50;15.15;;;3.53;;
65757;SDS011;52495;52.208;5.158;2023-12-28T10:07:19;15.70;;;3.35;;
65757;SDS011;52495;52.208;5.158;2023-12-28T10:09:46;16.52;;;4.32;;
65757;SDS011;52495;52.208;5.158;2023-12-28T10:12:13;17.23;;;3.50;;
65757;SDS011;52495;52.208;5.158;2023-12-28T10:14:41;20.92;;;3.80;;
65757;SDS011;52495;52.208;5.158;2023-12-28T10:17:08;17.73;;;3.63;;
65757;SDS011;52495;52.208;5.158;2023-12-28T10:19:36;15.50;;;3.72;;
65757;SDS011;52495;52.208;5.158;2023-12-28T10:22:03;18.75;;;4.03;;
65757;SDS011;52495;52.208;5.158;2023-12-28T10:24:32;14.32;;;3.15;;
65757;SDS011;52495;52.208;5.158;2023-12-28T10:27:00;13.15;;;3.22;;
65757;SDS011;52495;52.208;5.158;2023-12-28T10:29:26;18.67;;;4.22;;
65757;SDS011;52495;52.208;5.158;2023-12-28T10:31:54;23.23;;;3.97;;
65757;SDS011;52495;52.208;5.158;2023-12-28T10:34:20;23.83;;;4.57;;
65757;SDS011;52495;52.208;5.158;2023-12-28T10:36:47;18.65;;;3.78;;
65757;SDS011;52495;52.208;5.158;2023-12-28T10:39:19;18.30;;;3.70;;
65757;SDS011;52495;52.208;5.158;2023-12-28T10:41:53;21.95;;;4.43;;
65757;SDS011;52495;52.208;5.158;2023-12-28T10:44:22;25.02;;;5.22;;
65757;SDS011;52495;52.208;5.158;2023-12-28T10:46:53;15.38;;;3.08;;
65757;SDS011;52495;52.208;5.158;2023-12-28T10:49:27;14.52;;;3.40;;
65757;SDS011;52495;52.208;5.158;2023-12-28T10:51:57;18.67;;;3.58;;
65757;SDS011;52495;52.208;5.158;2023-12-28T10:54:28;16.50;;;2.90;;
65757;SDS011;52495;52.208;5.158;2023-12-28T10:57:05;16.17;;;3.22;;
65757;SDS011;52495;52.208;5.158;2023-12-28T10:59:39;24.00;;;4.07;;
65757;SDS011;52495;52.208;5.158;2023-12-28T11:02:15;16.40;;;3.65;;
65757;SDS011;52495;52.208;5.158;2023-12-28T11:04:48;14.60;;;3.33;;
65757;SDS011;52495;52.208;5.158;2023-12-28T11:07:17;17.25;;;3.65;;
65757;SDS011;52495;52.208;5.158;2023-12-28T11:09:45;16.13;;;3.67;;
65757;SDS011;52495;52.208;5.158;2023-12-28T11:12:13;22.42;;;3.47;;
65757;SDS011;52495;52.208;5.158;2023-12-28T11:14:43;15.50;;;2.97;;
65757;SDS011;52495;52.208;5.158;2023-12-28T11:17:11;17.33;;;3.50;;
65757;SDS011;52495;52.208;5.158;2023-12-28T11:19:41;17.48;;;4.05;;
65757;SDS011;52495;52.208;5.158;2023-12-28T11:22:09;13.00;;;3.25;;
65757;SDS011;52495;52.208;5.158;2023-12-28T11:24:36;16.67;;;3.80;;
65757;SDS011;52495;52.208;5.158;2023-12-28T11:27:03;12.60;;;3.17;;
65757;SDS011;52495;52.208;5.158;2023-12-28T11:29:32;19.92;;;4.18;;
65757;SDS011;52495;52.208;5.158;2023-12-28T11:31:59;21.55;;;3.40;;
65757;SDS011;52495;52.208;5.158;2023-12-28T11:34:27;19.38;;;3.50;;
65757;SDS011;52495;52.208;5.158;2023-12-28T11:36:55;19.65;;;4.50;;
65757;SDS011;52495;52.208;5.158;2023-12-28T11:39:26;17.63;;;3.72;;
65757;SDS011;52495;52.208;5.158;2023-12-28T11:41:59;16.25;;;3.75;;
65757;SDS011;52495;52.208;5.158;2023-12-28T11:44:28;20.85;;;4.97;;
65757;SDS011;52495;52.208;5.158;2023-12-28T11:46:56;15.20;;;3.53;;
65757;SDS011;52495;52.208;5.158;2023-12-28T11:49:26;19.02;;;3.58;;
65757;SDS011;52495;52.208;5.158;2023-12-28T11:51:54;22.23;;;4.50;;
65757;SDS011;52495;52.208;5.158;2023-12-28T11:54:23;20.58;;;3.55;;
65757;SDS011;52495;52.208;5.158;2023-12-28T11:56:50;14.30;;;3.20;;
65757;SDS011;52495;52.208;5.158;2023-12-28T11:59:18;19.70;;;4.18;;
65757;SDS011;52495;52.208;5.158;2023-12-28T12:01:48;20.10;;;4.60;;
65757;SDS011;52495;52.208;5.158;2023-12-28T12:04:17;20.88;;;3.58;;
65757;SDS011;52495;52.208;5.158;2023-12-28T12:06:44;23.83;;;3.72;;
65757;SDS011;52495;52.208;5.158;2023-12-28T12:09:12;17.38;;;3.97;;
65757;SDS011;52495;52.208;5.158;2023-12-28T12:11:39;20.52;;;3.75;;
65757;SDS011;52495;52.208;5.158;2023-12-28T12:14:08;19.75;;;3.83;;
65757;SDS011;52495;52.208;5.158;2023-12-28T12:16:35;16.25;;;4.25;;
65757;SDS011;52495;52.208;5.158;2023-12-28T12:19:03;11.82;;;2.88;;
65757;SDS011;52495;52.208;5.158;2023-12-28T12:21:32;17.90;;;3.85;;
65757;SDS011;52495;52.208;5.158;2023-12-28T12:23:58;19.92;;;3.92;;
65757;SDS011;52495;52.208;5.158;2023-12-28T12:26:26;25.52;;;4.80;;
65757;SDS011;52495;52.208;5.158;2023-12-28T12:28:53;24.75;;;4.70;;
65757;SDS011;52495;52.208;5.158;2023-12-28T12:31:19;16.55;;;3.03;;
65757;SDS011;52495;52.208;5.158;2023-12-28T12:33:47;13.20;;;3.83;;
65757;SDS011;52495;52.208;5.158;2023-12-28T12:36:15;14.88;;;3.33;;
65757;SDS011;52495;52.208;5.158;2023-12-28T12:38:43;15.55;;;3.42;;
65757;SDS011;52495;52.208;5.158;2023-12-28T12:41:10;18.27;;;3.63;;
65757;SDS011;52495;52.208;5.158;2023-12-28T12:43:37;17.20;;;3.10;;
65757;SDS011;52495;52.208;5.158;2023-12-28T12:46:06;16.85;;;3.88;;
65757;SDS011;52495;52.208;5.158;2023-12-28T12:48:33;16.95;;;2.63;;
65757;SDS011;52495;52.208;5.158;2023-12-28T12:51:01;16.67;;;3.30;;
65757;SDS011;52495;52.208;5.158;2023-12-28T12:53:32;19.70;;;3.97;;
65757;SDS011;52495;52.208;5.158;2023-12-28T12:56:01;19.67;;;3.55;;
65757;SDS011;52495;52.208;5.158;2023-12-28T12:58:30;16.33;;;3.40;;
65757;SDS011;52495;52.208;5.158;2023-12-28T13:00:57;17.98;;;3.67;;
65757;SDS011;52495;52.208;5.158;2023-12-28T13:03:27;15.68;;;2.85;;
65757;SDS011;52495;52.208;5.158;2023-12-28T13:05:54;18.35;;;4.05;;
65757;SDS011;52495;52.208;5.158;2023-12-28T13:08:21;17.45;;;3.55;;
65757;SDS011;52495;52.208;5.158;2023-12-28T13:10:48;17.02;;;3.20;;
65757;SDS011;52495;52.208;5.158;2023-12-28T13:13:18;16.02;;;3.20;;
65757;SDS011;52495;52.208;5.158;2023-12-28T13:15:45;16.90;;;3.55;;
65757;SDS011;52495;52.208;5.158;2023-12-28T13:18:12;20.23;;;3.42;;
65757;SDS011;52495;52.208;5.158;2023-12-28T13:20:39;16.55;;;3.83;;
65757;SDS011;52495;52.208;5.158;2023-12-28T13:23:08;16.70;;;3.58;;
65757;SDS011;52495;52.208;5.158;2023-12-28T13:25:34;21.80;;;4.18;;
65757;SDS011;52495;52.208;5.158;2023-12-28T13:28:03;15.90;;;3.90;;
65757;SDS011;52495;52.208;5.158;2023-12-28T13:30:31;17.45;;;4.07;;
65757;SDS011;52495;52.208;5.158;2023-12-28T13:33:01;14.73;;;3.67;;
65757;SDS011;52495;52.208;5.158;2023-12-28T13:35:27;17.20;;;4.20;;
65757;SDS011;52495;52.208;5.158;2023-12-28T13:37:54;23.85;;;4.38;;
65757;SDS011;52495;52.208;5.158;2023-12-28T13:40:21;19.75;;;3.67;;
65757;SDS011;52495;52.208;5.158;2023-12-28T13:42:48;17.52;;;3.45;;
65757;SDS011;52495;52.208;5.158;2023-12-28T13:45:14;15.80;;;3.50;;
65757;SDS011;52495;52.208;5.158;2023-12-28T13:47:43;19.17;;;3.50;;
65757;SDS011;52495;52.208;5.158;2023-12-28T13:50:09;16.20;;;3.30;;
65757;SDS011;52495;52.208;5.158;2023-12-28T13:52:37;18.05;;;3.80;;
65757;SDS011;52495;52.208;5.158;2023-12-28T13:55:03;15.18;;;3.28;;
65757;SDS011;52495;52.208;5.158;2023-12-28T13:57:30;16.50;;;3.55;;
65757;SDS011;52495;52.208;5.158;2023-12-28T13:59:57;12.73;;;3.25;;
65757;SDS011;52495;52.208;5.158;2023-12-28T14:02:26;17.52;;;3.90;;
65757;SDS011;52495;52.208;5.158;2023-12-28T14:04:54;16.17;;;3.40;;
65757;SDS011;52495;52.208;5.158;2023-12-28T14:07:21;18.90;;;3.78;;
65757;SDS011;52495;52.208;5.158;2023-12-28T14:09:48;20.25;;;3.58;;
65757;SDS011;52495;52.208;5.158;2023-12-28T14:12:15;14.25;;;2.92;;
65757;SDS011;52495;52.208;5.158;2023-12-28T14:14:42;16.55;;;3.28;;
65757;SDS011;52495;52.208;5.158;2023-12-28T14:17:09;16.58;;;3.78;;
65757;SDS011;52495;52.208;5.158;2023-12-28T14:19:36;18.52;;;2.78;;
65757;SDS011;52495;52.208;5.158;2023-12-28T14:22:04;18.52;;;3.67;;
65757;SDS011;52495;52.208;5.158;2023-12-28T14:24:32;20.70;;;4.85;;
65757;SDS011;52495;52.208;5.158;2023-12-28T14:26:59;18.67;;;3.47;;
65757;SDS011;52495;52.208;5.158;2023-12-28T14:29:27;15.52;;;3.33;;
65757;SDS011;52495;52.208;5.158;2023-12-28T14:31:54;17.55;;;3.60;;
65757;SDS011;52495;52.208;5.158;2023-12-28T14:34:22;18.75;;;3.72;;
65757;SDS011;52495;52.208;5.158;2023-12-28T14:36:50;19.23;;;3.83;;
65757;SDS011;52495;52.208;5.158;2023-12-28T14:39:20;21.90;;;4.25;;